createdAt,value
2022-10-02T00:02:17.055Z,99548.28
2022-10-02T00:05:05.898Z,99549.66
2022-10-02T00:07:51.959Z,99564.44
2022-10-02T00:10:34.910Z,99554.50
2022-10-02T00:13:06.832Z,99564.72
2022-10-02T00:15:36.313Z,99570.97
2022-10-02T00:18:08.000Z,99573.41
2022-10-02T00:21:07.110Z,99575.06
2022-10-02T00:23:46.480Z,99573.38
2022-10-02T00:26:30.284Z,99581.34
2022-10-02T00:29:24.424Z,99579.94
2022-10-02T00:32:06.969Z,99579.09
2022-10-02T00:34:50.945Z,99588.13
2022-10-02T00:37:22.416Z,99590.03
2022-10-02T00:40:11.279Z,99596.87
2022-10-02T00:42:54.416Z,99603.97
2022-10-02T00:45:33.902Z,99594.97
2022-10-02T00:48:22.606Z,99593.94
2022-10-02T00:51:25.018Z,99600.75
2022-10-02T00:54:29.892Z,99595.00
2022-10-02T00:57:19.800Z,99602.84
2022-10-02T01:00:02.295Z,99605.34
2022-10-02T01:02:55.356Z,99598.00
2022-10-02T01:05:23.059Z,99604.00
2022-10-02T01:07:52.123Z,99597.72
2022-10-02T01:10:22.334Z,99603.47
2022-10-02T01:12:50.404Z,99597.69
2022-10-02T01:15:20.973Z,99606.13
2022-10-02T01:17:50.350Z,99617.28
2022-10-02T01:20:28.650Z,99622.78
2022-10-02T01:23:16.011Z,99624.97
2022-10-02T01:25:43.935Z,99633.69
2022-10-02T01:28:11.816Z,99617.59
2022-10-02T01:30:42.287Z,99628.97
2022-10-02T01:33:11.046Z,99641.22
2022-10-02T01:35:39.247Z,99655.25
2022-10-02T01:38:09.873Z,99657.94
2022-10-02T01:40:39.850Z,99660.72
2022-10-02T01:43:07.089Z,99653.00
2022-10-02T01:45:55.076Z,99663.91
2022-10-02T01:49:13.502Z,99670.28
2022-10-02T01:52:06.773Z,99673.81
2022-10-02T01:54:58.603Z,99677.62
2022-10-02T01:57:44.665Z,99697.78
2022-10-02T02:00:12.149Z,99704.97
2022-10-02T02:03:14.827Z,99710.69
2022-10-02T02:05:47.367Z,99713.91
2022-10-02T02:08:37.851Z,99705.63
2022-10-02T02:11:11.633Z,99711.22
2022-10-02T02:13:55.370Z,99721.56
2022-10-02T02:16:31.876Z,99722.62
2022-10-02T02:19:02.012Z,99724.31
2022-10-02T02:21:53.081Z,99720.25
2022-10-02T02:24:30.998Z,99722.97
2022-10-02T02:27:00.857Z,99723.50
2022-10-02T02:29:30.169Z,99727.59
2022-10-02T02:31:59.085Z,99724.31
2022-10-02T02:34:40.189Z,99726.78
2022-10-02T02:37:11.695Z,99731.41
2022-10-02T02:39:48.324Z,99729.50
2022-10-02T02:42:17.957Z,99728.69
2022-10-02T02:44:52.013Z,99728.69
2022-10-02T02:47:24.612Z,99737.97
2022-10-02T02:50:00.169Z,99736.88
2022-10-02T02:52:30.563Z,99742.59
2022-10-02T02:55:12.579Z,99735.78
2022-10-02T02:57:47.833Z,99750.78
2022-10-02T03:00:16.293Z,99752.97
2022-10-02T03:02:43.649Z,99757.09
2022-10-02T03:05:15.182Z,99754.88
2022-10-02T03:08:04.329Z,99765.25
2022-10-02T03:10:47.245Z,99758.94
2022-10-02T03:13:39.786Z,99764.97
2022-10-02T03:16:39.569Z,99760.06
2022-10-02T03:19:13.404Z,99768.53
2022-10-02T03:21:55.705Z,99768.78
2022-10-02T03:24:36.680Z,99765.78
2022-10-02T03:27:20.876Z,99778.34
2022-10-02T03:29:56.943Z,99780.56
2022-10-02T03:32:25.065Z,99776.19
2022-10-02T03:34:52.807Z,99784.09
2022-10-02T03:37:20.204Z,99792.81
2022-10-02T03:39:49.505Z,99788.16
2022-10-02T03:42:23.062Z,99801.78
2022-10-02T03:44:50.459Z,99793.66
2022-10-02T03:47:18.030Z,99795.84
2022-10-02T03:49:46.374Z,99797.75
2022-10-02T03:52:16.673Z,99803.16
2022-10-02T03:54:44.868Z,99807.84
2022-10-02T03:57:21.303Z,99807.31
2022-10-02T03:59:51.718Z,99802.94
2022-10-02T04:02:43.432Z,99811.13
2022-10-02T04:05:24.764Z,99813.56
2022-10-02T04:07:56.299Z,99810.59
2022-10-02T04:10:43.091Z,99809.22
2022-10-02T04:13:19.559Z,99810.53
2022-10-02T04:16:08.899Z,99817.69
2022-10-02T04:18:59.286Z,99824.78
2022-10-02T04:21:35.387Z,99829.41
2022-10-02T04:24:14.300Z,99825.06
2022-10-02T04:26:59.103Z,99812.50
2022-10-02T04:29:28.858Z,99824.50
2022-10-02T04:32:16.869Z,99834.37
2022-10-02T04:34:44.276Z,99835.44
2022-10-02T04:37:26.783Z,99841.97
2022-10-02T04:40:27.959Z,99842.47
2022-10-02T04:43:17.050Z,99850.16
2022-10-02T04:46:06.006Z,99870.84
2022-10-02T04:48:39.980Z,99873.41
2022-10-02T04:51:26.335Z,99868.84
2022-10-02T04:54:20.046Z,99873.97
2022-10-02T04:56:47.247Z,99882.53
2022-10-02T04:59:17.745Z,99883.97
2022-10-02T05:01:59.094Z,99894.63
2022-10-02T05:04:32.576Z,99897.59
2022-10-02T05:07:33.529Z,99894.56
2022-10-02T05:10:10.347Z,99904.06
2022-10-02T05:12:37.538Z,99906.88
2022-10-02T05:15:28.101Z,99915.25
2022-10-02T05:18:26.668Z,99915.63
2022-10-02T05:21:16.002Z,99926.81
2022-10-02T05:24:01.867Z,99913.72
2022-10-02T05:27:02.511Z,99911.84
2022-10-02T05:29:46.342Z,99911.31
2022-10-02T05:32:21.666Z,99913.81
2022-10-02T05:35:16.842Z,99923.03
2022-10-02T05:37:56.459Z,99923.66
2022-10-02T05:40:51.527Z,99925.56
2022-10-02T05:43:40.005Z,99920.09
2022-10-02T05:46:19.018Z,99923.66
2022-10-02T05:48:57.822Z,99937.31
2022-10-02T05:51:42.373Z,99927.19
2022-10-02T05:54:20.485Z,99927.41
2022-10-02T05:56:52.679Z,99941.19
2022-10-02T05:59:43.441Z,99946.00
2022-10-02T06:02:18.160Z,99946.13
2022-10-02T06:04:52.257Z,99954.81
2022-10-02T06:07:20.230Z,99942.94
2022-10-02T06:09:53.127Z,99949.41
2022-10-02T06:12:35.750Z,99957.78
2022-10-02T06:15:06.364Z,99956.28
2022-10-02T06:17:47.805Z,99961.84
2022-10-02T06:20:22.745Z,99960.00
2022-10-02T06:22:52.975Z,99969.91
2022-10-02T06:25:31.676Z,99977.41
2022-10-02T06:28:20.123Z,99985.22
2022-10-02T06:30:50.100Z,99991.38
2022-10-02T06:33:26.254Z,99989.84
2022-10-02T06:36:24.328Z,99989.84
2022-10-02T06:39:10.719Z,99996.19
2022-10-02T06:41:51.491Z,99991.97
2022-10-02T06:44:30.931Z,100001.81
2022-10-02T06:47:17.395Z,100002.44
2022-10-02T06:50:10.776Z,100007.47
2022-10-02T06:53:19.788Z,100017.84
2022-10-02T06:56:27.184Z,100027.22
2022-10-02T06:59:15.114Z,100029.44
2022-10-02T07:01:48.478Z,100035.41
2022-10-02T07:04:35.871Z,100030.44
2022-10-02T07:07:38.507Z,100033.84
2022-10-02T07:10:18.246Z,100041.84
2022-10-02T07:13:03.002Z,100060.09
2022-10-02T07:15:35.696Z,100053.63
2022-10-02T07:18:42.710Z,100049.31
2022-10-02T07:21:21.591Z,100052.28
2022-10-02T07:23:57.803Z,100045.38
2022-10-02T07:26:40.378Z,100039.50
2022-10-02T07:29:34.733Z,100045.84
2022-10-02T07:32:14.786Z,100045.72
2022-10-02T07:35:03.144Z,100044.78
2022-10-02T07:37:49.244Z,100051.91
2022-10-02T07:40:41.502Z,100048.19
2022-10-02T07:43:26.393Z,100056.53
2022-10-02T07:46:10.300Z,100055.38
2022-10-02T07:49:04.242Z,100061.56
2022-10-02T07:51:48.584Z,100058.53
2022-10-02T07:54:43.980Z,100060.41
2022-10-02T07:57:18.039Z,100063.87
2022-10-02T07:59:47.072Z,100062.53
2022-10-02T08:02:44.344Z,100060.09
2022-10-02T08:05:19.830Z,100070.06
2022-10-02T08:07:50.947Z,100072.28
2022-10-02T08:10:23.210Z,100083.84
2022-10-02T08:13:20.726Z,100083.66
2022-10-02T08:15:52.595Z,100080.44
2022-10-02T08:18:34.576Z,100073.03
2022-10-02T08:21:05.997Z,100083.38
2022-10-02T08:23:39.516Z,100070.87
2022-10-02T08:26:29.773Z,100072.28
2022-10-02T08:29:08.406Z,100077.28
2022-10-02T08:31:36.121Z,100080.41
2022-10-02T08:34:23.630Z,100087.91
2022-10-02T08:37:19.888Z,100086.66
2022-10-02T08:40:20.410Z,100095.25
2022-10-02T08:43:09.596Z,100090.28
2022-10-02T08:45:55.912Z,100087.84
2022-10-02T08:48:57.116Z,100094.09
2022-10-02T08:52:12.537Z,100077.47
2022-10-02T08:54:46.938Z,100081.25
2022-10-02T08:57:29.222Z,100082.78
2022-10-02T09:00:24.487Z,100096.84
2022-10-02T09:03:26.204Z,100096.53
2022-10-02T09:06:21.826Z,100095.25
2022-10-02T09:09:07.670Z,100087.53
2022-10-02T09:11:50.347Z,100084.56
2022-10-02T09:14:42.877Z,100082.94
2022-10-02T09:17:42.083Z,100095.03
2022-10-02T09:20:34.021Z,100082.50
2022-10-02T09:23:22.047Z,100093.34
2022-10-02T09:25:52.583Z,100094.16
2022-10-02T09:28:29.180Z,100088.88
2022-10-02T09:31:14.974Z,100096.19
2022-10-02T09:34:10.343Z,100084.34
2022-10-02T09:36:46.636Z,100072.75
2022-10-02T09:39:32.617Z,100072.75
2022-10-02T09:42:15.307Z,100069.84
2022-10-02T09:45:24.152Z,100078.00
2022-10-02T09:48:08.689Z,100073.50
2022-10-02T09:50:45.223Z,100069.62
2022-10-02T09:53:27.381Z,100071.84
2022-10-02T09:56:22.243Z,100074.47
2022-10-02T09:59:04.820Z,100068.31
2022-10-02T10:01:54.200Z,100071.56
2022-10-02T10:05:05.465Z,100068.88
2022-10-02T10:07:53.300Z,100064.16
2022-10-02T10:10:24.224Z,100053.69
2022-10-02T10:13:16.543Z,100055.00
2022-10-02T10:16:11.672Z,100046.22
2022-10-02T10:19:02.910Z,100044.09
2022-10-02T10:21:57.794Z,100055.66
2022-10-02T10:24:46.793Z,100045.09
2022-10-02T10:27:47.340Z,100055.59
2022-10-02T10:30:33.095Z,100034.81
2022-10-02T10:33:13.471Z,100050.28
2022-10-02T10:35:53.791Z,100053.00
2022-10-02T10:38:38.356Z,100044.97
2022-10-02T10:41:39.150Z,100043.22
2022-10-02T10:44:23.030Z,100044.72
2022-10-02T10:47:43.814Z,100046.38
2022-10-02T10:50:25.768Z,100040.16
2022-10-02T10:53:22.498Z,100046.06
2022-10-02T10:56:36.964Z,100045.91
2022-10-02T10:59:06.360Z,100032.25
2022-10-02T11:01:44.202Z,100039.16
2022-10-02T11:04:15.625Z,100036.13
2022-10-02T11:06:51.813Z,100041.41
2022-10-02T11:09:40.659Z,100056.28
2022-10-02T11:12:21.671Z,100055.16
2022-10-02T11:14:58.195Z,100049.00
2022-10-02T11:17:40.389Z,100059.44
2022-10-02T11:20:19.303Z,100054.97
2022-10-02T11:23:07.824Z,100051.13
2022-10-02T11:26:02.842Z,100038.28
2022-10-02T11:28:42.216Z,100047.00
2022-10-02T11:31:32.822Z,100035.72
2022-10-02T11:34:06.464Z,100043.97
2022-10-02T11:36:47.880Z,100028.13
2022-10-02T11:39:56.246Z,100032.66
2022-10-02T11:42:30.725Z,100028.19
2022-10-02T11:44:58.213Z,100016.09
2022-10-02T11:47:48.255Z,100028.53
2022-10-02T11:50:37.748Z,100021.38
2022-10-02T11:53:34.590Z,100020.41
2022-10-02T11:56:35.901Z,100020.50
2022-10-02T11:59:49.382Z,100017.91
2022-10-02T12:02:42.313Z,100022.66
2022-10-02T12:05:33.805Z,100023.91
2022-10-02T12:08:08.237Z,100026.94
2022-10-02T12:10:48.493Z,100032.59
2022-10-02T12:13:52.022Z,100040.13
2022-10-02T12:16:41.888Z,100030.13
2022-10-02T12:19:38.786Z,100027.88
2022-10-02T12:22:59.800Z,100030.50
2022-10-02T12:26:01.381Z,100021.03
2022-10-02T12:28:43.415Z,100008.97
2022-10-02T12:31:19.162Z,100001.47
2022-10-02T12:34:01.305Z,99988.97
2022-10-02T12:36:56.602Z,100000.34
2022-10-02T12:39:40.255Z,99997.12
2022-10-02T12:42:26.747Z,99986.56
2022-10-02T12:45:28.191Z,99986.50
2022-10-02T12:48:07.250Z,99979.09
2022-10-02T12:51:07.684Z,99984.09
2022-10-02T12:54:00.665Z,99976.88
2022-10-02T12:56:45.924Z,99968.94
2022-10-02T12:59:22.341Z,99967.25
2022-10-02T13:02:49.127Z,99963.47
2022-10-02T13:05:47.424Z,99950.78
2022-10-02T13:08:24.252Z,99949.91
2022-10-02T13:11:10.445Z,99946.50
2022-10-02T13:14:00.560Z,99953.22
2022-10-02T13:16:49.077Z,99946.97
2022-10-02T13:19:20.674Z,99940.16
2022-10-02T13:21:50.857Z,99938.34
2022-10-02T13:24:30.478Z,99939.13
2022-10-02T13:27:15.633Z,99937.63
2022-10-02T13:29:45.874Z,99933.44
2022-10-02T13:32:41.526Z,99926.41
2022-10-02T13:35:15.069Z,99931.81
2022-10-02T13:38:01.869Z,99928.22
2022-10-02T13:40:38.428Z,99930.00
2022-10-02T13:43:44.212Z,99926.47
2022-10-02T13:46:27.045Z,99928.50
2022-10-02T13:49:06.826Z,99910.75
2022-10-02T13:51:46.121Z,99918.66
2022-10-02T13:54:26.073Z,99915.19
2022-10-02T13:57:06.169Z,99906.94
2022-10-02T14:00:04.247Z,99905.69
2022-10-02T14:03:07.314Z,99902.75
2022-10-02T14:05:42.592Z,99909.03
2022-10-02T14:08:31.639Z,99913.34
2022-10-02T14:12:00.861Z,99912.13
2022-10-02T14:14:42.882Z,99911.34
2022-10-02T14:17:39.603Z,99912.41
2022-10-02T14:20:25.176Z,99907.16
2022-10-02T14:23:31.453Z,99899.28
2022-10-02T14:26:20.140Z,99910.72
2022-10-02T14:29:21.746Z,99900.16
2022-10-02T14:32:26.368Z,99897.34
2022-10-02T14:35:20.240Z,99884.91
2022-10-02T14:38:01.306Z,99882.22
2022-10-02T14:40:57.414Z,99898.50
2022-10-02T14:43:43.420Z,99895.16
2022-10-02T14:46:36.089Z,99890.72
2022-10-02T14:49:26.288Z,99879.94
2022-10-02T14:51:53.783Z,99882.31
2022-10-02T14:54:41.890Z,99873.28
2022-10-02T14:57:19.320Z,99867.88
2022-10-02T15:00:22.566Z,99866.75
2022-10-02T15:03:10.236Z,99861.81
2022-10-02T15:06:05.263Z,99852.78
2022-10-02T15:08:40.550Z,99853.19
2022-10-02T15:11:20.981Z,99846.41
2022-10-02T15:14:04.705Z,99856.03
2022-10-02T15:17:05.239Z,99851.19
2022-10-02T15:19:39.029Z,99851.00
2022-10-02T15:22:41.638Z,99852.84
2022-10-02T15:25:31.899Z,99853.38
2022-10-02T15:28:36.205Z,99843.56
2022-10-02T15:31:19.887Z,99848.44
2022-10-02T15:34:27.231Z,99826.37
2022-10-02T15:37:13.450Z,99837.28
2022-10-02T15:40:06.053Z,99829.75
2022-10-02T15:42:33.489Z,99823.59
2022-10-02T15:45:35.867Z,99817.31
2022-10-02T15:48:37.070Z,99820.56
2022-10-02T15:51:24.225Z,99836.16
2022-10-02T15:54:03.347Z,99838.84
2022-10-02T15:56:41.773Z,99819.41
2022-10-02T15:59:40.379Z,99821.09
2022-10-02T16:02:10.725Z,99819.19
2022-10-02T16:04:46.679Z,99827.81
2022-10-02T16:07:39.559Z,99821.72
2022-10-02T16:10:26.065Z,99820.47
2022-10-02T16:12:56.273Z,99815.31
2022-10-02T16:15:31.655Z,99821.47
2022-10-02T16:18:14.227Z,99822.59
2022-10-02T16:20:59.580Z,99826.59
2022-10-02T16:23:45.534Z,99817.59
2022-10-02T16:26:18.670Z,99818.22
2022-10-02T16:28:52.005Z,99815.50
2022-10-02T16:31:30.549Z,99814.16
2022-10-02T16:34:15.976Z,99826.34
2022-10-02T16:37:00.010Z,99842.84
2022-10-02T16:39:43.619Z,99847.22
2022-10-02T16:42:34.555Z,99847.66
2022-10-02T16:45:30.478Z,99833.28
2022-10-02T16:48:09.755Z,99827.41
2022-10-02T16:50:45.356Z,99814.53
2022-10-02T16:53:29.207Z,99816.31
2022-10-02T16:56:12.321Z,99812.75
2022-10-02T16:59:03.403Z,99816.72
2022-10-02T17:01:34.726Z,99816.56
2022-10-02T17:04:24.740Z,99808.03
2022-10-02T17:07:20.040Z,99815.97
2022-10-02T17:10:19.266Z,99817.31
2022-10-02T17:13:12.184Z,99817.13
2022-10-02T17:15:49.358Z,99802.75
2022-10-02T17:18:57.116Z,99796.88
2022-10-02T17:21:54.036Z,99808.75
2022-10-02T17:24:52.393Z,99799.06
2022-10-02T17:27:35.359Z,99801.16
2022-10-02T17:30:17.278Z,99793.75
2022-10-02T17:32:45.886Z,99795.94
2022-10-02T17:35:23.838Z,99799.75
2022-10-02T17:38:15.981Z,99799.62
2022-10-02T17:40:54.334Z,99799.59
2022-10-02T17:43:31.117Z,99793.47
2022-10-02T17:46:40.657Z,99795.25
2022-10-02T17:49:32.500Z,99802.94
2022-10-02T17:52:48.904Z,99797.59
2022-10-02T17:56:04.515Z,99796.41
2022-10-02T17:58:56.617Z,99792.94
2022-10-02T18:01:44.235Z,99794.03
2022-10-02T18:04:49.230Z,99793.72
2022-10-02T18:07:38.334Z,99793.59
2022-10-02T18:10:24.829Z,99800.47
2022-10-02T18:13:14.778Z,99806.06
2022-10-02T18:15:55.385Z,99795.16
2022-10-02T18:18:33.571Z,99788.56
2022-10-02T18:21:03.823Z,99797.13
2022-10-02T18:23:36.913Z,99803.19
2022-10-02T18:26:29.443Z,99797.41
2022-10-02T18:29:16.206Z,99794.53
2022-10-02T18:31:56.703Z,99808.66
2022-10-02T18:34:42.718Z,99793.72
2022-10-02T18:37:27.102Z,99804.66
2022-10-02T18:40:10.302Z,99813.19
2022-10-02T18:42:53.119Z,99806.12
2022-10-02T18:45:33.626Z,99814.66
2022-10-02T18:48:19.610Z,99812.00
2022-10-02T18:51:03.594Z,99814.53
2022-10-02T18:53:43.663Z,99808.34
2022-10-02T18:56:12.454Z,99807.34
2022-10-02T18:59:02.465Z,99792.88
2022-10-02T19:01:45.282Z,99800.12
2022-10-02T19:04:37.870Z,99804.00
2022-10-02T19:07:25.131Z,99799.41
2022-10-02T19:10:29.726Z,99803.50
2022-10-02T19:13:12.647Z,99802.25
2022-10-02T19:15:45.014Z,99798.72
2022-10-02T19:18:19.759Z,99791.97
2022-10-02T19:21:19.139Z,99795.31
2022-10-02T19:24:01.822Z,99799.19
2022-10-02T19:26:33.171Z,99808.91
2022-10-02T19:29:08.462Z,99812.53
2022-10-02T19:31:41.626Z,99811.63
2022-10-02T19:34:17.145Z,99808.63
2022-10-02T19:36:50.186Z,99803.69
2022-10-02T19:39:20.276Z,99802.31
2022-10-02T19:41:48.736Z,99792.47
2022-10-02T19:44:28.322Z,99786.41
2022-10-02T19:46:58.140Z,99792.19
2022-10-02T19:49:37.070Z,99776.00
2022-10-02T19:52:05.587Z,99770.13
2022-10-02T19:54:37.012Z,99772.00
2022-10-02T19:57:16.532Z,99772.13
2022-10-02T19:59:47.626Z,99762.75
2022-10-02T20:02:31.382Z,99773.69
2022-10-02T20:05:01.826Z,99767.28
2022-10-02T20:07:30.435Z,99769.06
2022-10-02T20:10:01.525Z,99761.91
2022-10-02T20:12:32.032Z,99756.31
2022-10-02T20:15:10.437Z,99759.59
2022-10-02T20:17:39.178Z,99754.72
2022-10-02T20:20:11.994Z,99759.16
2022-10-02T20:22:48.271Z,99762.31
2022-10-02T20:25:27.683Z,99754.81
2022-10-02T20:28:11.314Z,99740.66
2022-10-02T20:30:41.789Z,99748.94
2022-10-02T20:33:18.197Z,99746.31
2022-10-02T20:35:49.936Z,99749.37
2022-10-02T20:38:31.718Z,99744.09
2022-10-02T20:41:03.835Z,99742.94
2022-10-02T20:43:36.471Z,99741.31
2022-10-02T20:46:34.017Z,99735.81
2022-10-02T20:49:40.176Z,99727.47
2022-10-02T20:52:26.302Z,99730.84
2022-10-02T20:55:25.466Z,99739.72
2022-10-02T20:58:17.323Z,99743.44
2022-10-02T21:01:00.157Z,99737.59
2022-10-02T21:06:49.717Z,99757.00
2022-10-02T21:09:19.667Z,99766.16
2022-10-02T21:12:39.842Z,99763.28
2022-10-02T21:15:22.046Z,99760.56
2022-10-02T21:18:17.015Z,99758.13
2022-10-02T21:21:03.247Z,99759.91
2022-10-02T21:23:46.710Z,99752.94
2022-10-02T21:27:07.583Z,99755.19
2022-10-02T21:29:58.836Z,99761.16
2022-10-02T21:32:56.018Z,99749.69
2022-10-02T21:35:38.549Z,99755.97
2022-10-02T21:38:23.615Z,99746.41
2022-10-02T21:41:19.659Z,99753.78
2022-10-02T21:44:03.638Z,99737.38
2022-10-02T21:46:57.330Z,99742.03
2022-10-02T21:49:43.431Z,99744.78
2022-10-02T21:52:29.888Z,99744.53
2022-10-02T21:55:21.425Z,99739.84
2022-10-02T21:57:57.988Z,99734.44
2022-10-02T22:00:26.603Z,99740.16
2022-10-02T22:03:15.665Z,99746.16
2022-10-02T22:06:11.529Z,99739.34
2022-10-02T22:09:07.633Z,99734.69
2022-10-02T22:11:47.097Z,99734.09
2022-10-02T22:14:35.017Z,99736.34
2022-10-02T22:17:27.064Z,99732.53
2022-10-02T22:20:18.594Z,99736.91
2022-10-02T22:23:10.822Z,99726.22
2022-10-02T22:26:00.263Z,99732.50
2022-10-02T22:28:48.597Z,99732.50
2022-10-02T22:31:45.016Z,99735.78
2022-10-02T22:34:36.880Z,99736.88
2022-10-02T22:37:27.218Z,99725.94
2022-10-02T22:40:25.238Z,99728.69
2022-10-02T22:43:00.442Z,99721.03
2022-10-02T22:45:43.067Z,99730.31
2022-10-02T22:48:16.555Z,99719.97
2022-10-02T22:50:48.349Z,99723.72
2022-10-02T22:53:33.073Z,99714.69
2022-10-02T22:56:00.559Z,99724.78
2022-10-02T22:58:58.999Z,99726.19
2022-10-02T23:01:56.665Z,99721.06
2022-10-02T23:04:33.165Z,99720.75
2022-10-02T23:07:13.027Z,99734.72
2022-10-02T23:09:57.848Z,99728.09
2022-10-02T23:12:38.779Z,99737.16
2022-10-02T23:15:33.135Z,99725.44
2022-10-02T23:18:06.691Z,99718.84
2022-10-02T23:20:50.155Z,99709.31
2022-10-02T23:23:30.384Z,99714.25
2022-10-02T23:26:05.067Z,99707.12
2022-10-02T23:28:44.685Z,99715.28
2022-10-02T23:31:22.158Z,99713.16
2022-10-02T23:34:12.397Z,99718.84
2022-10-02T23:37:32.168Z,99723.78
2022-10-02T23:40:12.791Z,99718.06
2022-10-02T23:43:05.538Z,99707.12
2022-10-02T23:45:41.315Z,99706.84
2022-10-02T23:48:11.838Z,99707.12
2022-10-02T23:50:50.935Z,99713.16
2022-10-02T23:54:09.383Z,99722.69
2022-10-02T23:57:01.288Z,99718.87
2022-10-02T23:59:59.492Z,99727.59
